Time;durP1;ratioP1;P1;durP2;ratioP2;P2;SDS_P1;SDS_P2;PMS_P1;PMS_P2;Temp;Humidity;BMP_temperature;BMP_pressure;BME280_temperature;BME280_humidity;BME280_pressure;Samples;Min_cycle;Max_cycle;Signal;HPM_P1;HPM_P2
2023/07/30 00:01:48;;;;;;;0.10;0.10;;;;;;;15.26;100.00;96046.16;5034325;28;20044;-78
2023/07/30 00:04:34;;;;;;;0.10;0.10;;;;;;;15.24;100.00;96041.03;5021568;28;20384;-78
2023/07/30 00:07:20;;;;;;;0.10;0.10;;;;;;;15.26;100.00;96033.47;5031845;28;20776;-79
2023/07/30 00:10:06;;;;;;;0.10;0.10;;;;;;;15.20;100.00;96034.63;5032217;28;20352;-78
2023/07/30 00:12:52;;;;;;;0.10;0.10;;;;;;;15.13;100.00;96033.34;5033440;28;20094;-79
2023/07/30 00:15:38;;;;;;;0.10;0.10;;;;;;;15.21;100.00;96032.72;5034994;28;20048;-77
2023/07/30 00:18:24;;;;;;;0.10;0.10;;;;;;;15.25;100.00;96031.88;5033332;28;20045;-78
2023/07/30 00:21:09;;;;;;;0.10;0.10;;;;;;;15.29;100.00;96048.25;5036141;28;20060;-78
2023/07/30 00:23:55;;;;;;;0.10;0.10;;;;;;;15.30;100.00;96045.25;5032345;28;20573;-77
2023/07/30 00:26:41;;;;;;;0.10;0.10;;;;;;;15.38;100.00;96040.34;5035642;28;20041;-78
2023/07/30 00:29:27;;;;;;;0.10;0.10;;;;;;;15.38;100.00;96038.44;5022487;28;20419;-79
2023/07/30 00:32:15;;;;;;;0.10;0.10;;;;;;;15.35;100.00;96040.91;5033957;28;20048;-79
2023/07/30 00:35:01;;;;;;;0.10;0.10;;;;;;;15.35;100.00;96049.81;5021665;28;20535;-80
2023/07/30 00:37:47;;;;;;;0.10;0.10;;;;;;;15.30;100.00;96053.34;5034050;28;20524;-78
2023/07/30 00:40:39;;;;;;;0.10;0.10;;;;;;;15.25;100.00;96048.03;5032218;28;20048;-80
2023/07/30 00:43:25;;;;;;;0.10;0.10;;;;;;;15.18;100.00;96047.59;5035472;28;20035;-77
2023/07/30 00:46:13;;;;;;;0.10;0.10;;;;;;;15.17;100.00;96051.34;5021856;28;20041;-79
2023/07/30 00:48:59;;;;;;;0.10;0.10;;;;;;;15.13;100.00;96053.03;5018949;28;20037;-80
2023/07/30 00:51:45;;;;;;;0.10;0.10;;;;;;;15.05;100.00;96051.75;5036488;28;20067;-78
2023/07/30 00:54:32;;;;;;;0.17;0.17;;;;;;;14.96;100.00;96056.19;5019864;28;20573;-78
2023/07/30 00:57:19;;;;;;;0.10;0.10;;;;;;;14.95;100.00;96067.25;5018876;28;20060;-78
2023/07/30 01:00:08;;;;;;;0.10;0.10;;;;;;;14.91;100.00;96064.31;5022914;28;20116;-79
2023/07/30 01:02:54;;;;;;;0.10;0.10;;;;;;;14.93;100.00;96072.09;5035008;28;20395;-77
2023/07/30 01:05:40;;;;;;;0.10;0.10;;;;;;;14.85;100.00;96062.75;5020901;28;20037;-77
2023/07/30 01:08:26;;;;;;;0.10;0.10;;;;;;;14.88;100.00;96082.94;5033216;28;20036;-78
2023/07/30 01:11:14;;;;;;;0.10;0.10;;;;;;;14.80;100.00;96073.59;5034058;28;20083;-78
2023/07/30 01:14:00;;;;;;;0.03;0.03;;;;;;;14.82;100.00;96079.47;5034770;28;20033;-78
2023/07/30 01:16:48;;;;;;;0.10;0.10;;;;;;;14.74;100.00;96083.59;5021394;28;20495;-77
2023/07/30 01:19:34;;;;;;;0.10;0.10;;;;;;;14.71;100.00;96073.41;5036148;28;20123;-78
2023/07/30 01:22:20;;;;;;;0.10;0.10;;;;;;;14.64;100.00;96078.31;5034676;28;20049;-78
2023/07/30 01:25:06;;;;;;;0.10;0.10;;;;;;;14.62;100.00;96082.34;5034831;28;20072;-78
2023/07/30 01:27:55;;;;;;;0.10;0.10;;;;;;;14.63;100.00;96084.78;5019360;28;20048;-78
2023/07/30 01:30:42;;;;;;;0.10;0.10;;;;;;;14.62;100.00;96080.47;5037484;28;20076;-78
2023/07/30 01:33:30;;;;;;;0.10;0.10;;;;;;;14.63;100.00;96075.88;5033870;28;20037;-77
2023/07/30 01:36:18;;;;;;;0.20;0.20;;;;;;;14.61;100.00;96086.13;5035863;28;20044;-77
2023/07/30 01:39:05;;;;;;;0.10;0.10;;;;;;;14.57;100.00;96083.22;5034930;28;20056;-79
2023/07/30 01:41:53;;;;;;;0.10;0.10;;;;;;;14.50;100.00;96090.81;5018299;28;20045;-78
2023/07/30 01:44:39;;;;;;;0.10;0.10;;;;;;;14.55;100.00;96085.38;5036180;28;20309;-78
2023/07/30 01:47:25;;;;;;;0.10;0.10;;;;;;;14.55;100.00;96085.38;5031560;28;20052;-77
2023/07/30 01:50:11;;;;;;;0.13;0.13;;;;;;;14.60;100.00;96089.91;5032286;28;20083;-77
2023/07/30 01:52:57;;;;;;;0.10;0.10;;;;;;;14.63;100.00;96094.72;5031894;28;20029;-80
2023/07/30 01:55:43;;;;;;;0.10;0.10;;;;;;;14.56;100.00;96086.19;5034369;28;20041;-77
2023/07/30 01:58:29;;;;;;;0.10;0.10;;;;;;;14.57;100.00;96085.91;5019259;28;20468;-78
2023/07/30 02:01:15;;;;;;;0.10;0.10;;;;;;;14.58;100.00;96087.50;5036803;28;20107;-78
2023/07/30 02:04:01;;;;;;;0.10;0.10;;;;;;;14.65;100.00;96088.00;5019186;28;20051;-80
2023/07/30 02:06:48;;;;;;;0.10;0.10;;;;;;;14.75;100.00;96092.47;5034111;28;20115;-78
2023/07/30 02:09:34;;;;;;;0.10;0.10;;;;;;;14.88;100.00;96094.50;5032455;28;20095;-78
2023/07/30 02:12:21;;;;;;;0.20;0.20;;;;;;;14.99;100.00;96090.63;5031681;28;20828;-78
2023/07/30 02:15:07;;;;;;;0.10;0.10;;;;;;;15.11;100.00;96092.13;5017564;28;20052;-79
2023/07/30 02:17:53;;;;;;;0.10;0.10;;;;;;;15.15;100.00;96090.47;5033969;28;20080;-79
2023/07/30 02:20:39;;;;;;;0.20;0.20;;;;;;;15.18;100.00;96092.59;5033711;28;20385;-78
2023/07/30 02:23:25;;;;;;;0.10;0.10;;;;;;;15.20;100.00;96104.69;5017420;28;20040;-78
2023/07/30 02:26:11;;;;;;;0.10;0.10;;;;;;;15.21;100.00;96100.91;5034672;28;20539;-77
2023/07/30 02:29:00;;;;;;;0.10;0.10;;;;;;;15.24;100.00;96103.00;5036367;28;20041;-79
2023/07/30 02:31:45;;;;;;;0.10;0.10;;;;;;;15.18;100.00;96098.78;5033566;28;20064;-78
2023/07/30 02:34:31;;;;;;;0.10;0.10;;;;;;;14.97;100.00;96095.50;5036670;28;20043;-77
2023/07/30 02:37:17;;;;;;;0.10;0.10;;;;;;;14.96;100.00;96101.97;5037074;28;20037;-78
2023/07/30 02:40:04;;;;;;;0.10;0.10;;;;;;;14.99;100.00;96097.91;5036742;28;20072;-77
2023/07/30 02:42:50;;;;;;;0.10;0.10;;;;;;;14.98;100.00;96104.38;5032712;28;20490;-77
2023/07/30 02:45:38;;;;;;;0.20;0.20;;;;;;;15.05;100.00;96099.47;5033042;28;20285;-79
2023/07/30 02:48:24;;;;;;;0.10;0.10;;;;;;;15.03;100.00;96105.13;5030035;28;20714;-78
2023/07/30 02:51:10;;;;;;;0.10;0.10;;;;;;;15.14;100.00;96111.22;5023285;28;20468;-79
2023/07/30 02:54:01;;;;;;;0.10;0.10;;;;;;;15.15;100.00;96106.63;5036628;28;20045;-79
2023/07/30 02:56:47;;;;;;;0.10;0.10;;;;;;;15.11;100.00;96106.41;5034309;28;20510;-78
2023/07/30 02:59:37;;;;;;;0.15;0.15;;;;;;;15.13;100.00;96100.72;5022347;28;20052;-79
2023/07/30 03:02:23;;;;;;;0.10;0.10;;;;;;;15.12;100.00;96113.41;5017806;28;20067;-79
2023/07/30 03:05:09;;;;;;;0.10;0.10;;;;;;;15.12;100.00;96101.81;5036851;28;20056;-79
2023/07/30 03:07:55;;;;;;;0.10;0.10;;;;;;;15.12;100.00;96113.41;5036380;28;20036;-78
2023/07/30 03:10:41;;;;;;;0.10;0.10;;;;;;;15.15;100.00;96112.81;5034532;28;20513;-77
2023/07/30 03:13:27;;;;;;;0.10;0.10;;;;;;;15.17;100.00;96116.03;5020447;28;20114;-78
2023/07/30 03:16:12;;;;;;;0.10;0.10;;;;;;;15.21;100.00;96116.28;5021030;28;20092;-78
2023/07/30 03:18:58;;;;;;;0.10;0.10;;;;;;;15.18;100.00;96122.25;5032176;28;20409;-78
2023/07/30 03:21:44;;;;;;;0.10;0.10;;;;;;;15.16;100.00;96119.81;5033915;28;20053;-77
2023/07/30 03:24:30;;;;;;;0.10;0.10;;;;;;;15.15;100.00;96118.22;5033746;28;20491;-78
2023/07/30 03:27:16;;;;;;;0.10;0.10;;;;;;;15.18;100.00;96112.25;5029524;28;20037;-78
2023/07/30 03:30:02;;;;;;;0.10;0.10;;;;;;;15.16;100.00;96114.41;5017620;28;20029;-78
2023/07/30 03:32:48;;;;;;;0.10;0.10;;;;;;;15.17;100.00;96109.84;5034094;28;20473;-78
2023/07/30 03:35:34;;;;;;;0.10;0.10;;;;;;;15.10;100.00;96106.66;5020033;28;20353;-78
2023/07/30 03:38:19;;;;;;;0.20;0.20;;;;;;;15.15;100.00;96117.41;5031032;28;20475;-78
2023/07/30 03:41:06;;;;;;;0.10;0.10;;;;;;;15.17;100.00;96112.53;5024684;28;20501;-79
2023/07/30 03:43:52;;;;;;;0.10;0.10;;;;;;;15.20;100.00;96115.47;5033013;28;20057;-79
2023/07/30 03:46:38;;;;;;;0.10;0.10;;;;;;;15.25;100.00;96118.13;5024775;28;20509;-79
2023/07/30 03:49:24;;;;;;;0.10;0.10;;;;;;;15.28;100.00;96122.94;5034513;28;20273;-79
2023/07/30 03:52:10;;;;;;;0.10;0.10;;;;;;;15.30;100.00;96112.66;5018424;28;20379;-78
2023/07/30 03:54:55;;;;;;;0.13;0.13;;;;;;;15.31;100.00;96126.94;5020115;28;20644;-78
2023/07/30 03:57:41;;;;;;;0.10;0.10;;;;;;;15.34;100.00;96115.59;5034283;28;20280;-78
2023/07/30 04:00:29;;;;;;;0.10;0.10;;;;;;;15.34;100.00;96118.28;5035139;28;20072;-78
2023/07/30 04:03:15;;;;;;;0.10;0.10;;;;;;;15.36;100.00;96118.00;5040837;28;20163;-79
2023/07/30 04:06:01;;;;;;;0.10;0.10;;;;;;;15.38;100.00;96115.81;5025393;28;20037;-78
2023/07/30 04:08:47;;;;;;;0.10;0.10;;;;;;;15.34;100.00;96112.91;5026430;28;20045;-79
2023/07/30 04:11:33;;;;;;;0.20;0.20;;;;;;;15.43;100.00;96113.06;5038542;28;20406;-80
2023/07/30 04:14:19;;;;;;;0.20;0.20;;;;;;;15.46;100.00;96118.69;5022143;28;20041;-80
2023/07/30 04:17:05;;;;;;;0.10;0.10;;;;;;;15.46;100.00;96117.88;5037781;28;20033;-80
2023/07/30 04:19:51;;;;;;;0.20;0.20;;;;;;;15.42;100.00;96125.75;5040857;28;20037;-78
2023/07/30 04:22:37;;;;;;;0.20;0.20;;;;;;;15.50;100.00;96124.31;5032242;28;20041;-79
2023/07/30 04:25:23;;;;;;;0.10;0.10;;;;;;;15.51;100.00;96125.91;5024527;28;20151;-78
2023/07/30 04:28:09;;;;;;;0.10;0.10;;;;;;;15.52;100.00;96127.53;5037720;28;20053;-79
2023/07/30 04:30:55;;;;;;;0.20;0.20;;;;;;;15.54;100.00;96130.72;5038206;28;20439;-80
2023/07/30 04:33:41;;;;;;;0.17;0.17;;;;;;;15.45;100.00;96127.84;5039255;28;20041;-79
2023/07/30 04:36:30;;;;;;;0.10;0.10;;;;;;;15.52;100.00;96124.81;5037921;28;20041;-79
2023/07/30 04:39:17;;;;;;;0.10;0.10;;;;;;;15.56;100.00;96125.84;5034136;28;20044;-78
2023/07/30 04:42:03;;;;;;;0.13;0.13;;;;;;;15.54;100.00;96119.94;5034780;28;20490;-78
2023/07/30 04:44:50;;;;;;;0.10;0.10;;;;;;;15.55;100.00;96110.75;5019569;28;20072;-78
2023/07/30 04:47:37;;;;;;;0.10;0.10;;;;;;;15.53;100.00;96115.63;5025003;28;20172;-79
2023/07/30 04:50:23;;;;;;;0.10;0.10;;;;;;;15.57;100.00;96122.88;5033284;28;20258;-80
2023/07/30 04:53:09;;;;;;;0.10;0.10;;;;;;;15.51;100.00;96113.22;5038016;28;20051;-79
2023/07/30 04:55:59;;;;;;;0.13;0.13;;;;;;;15.42;100.00;96111.47;5036128;28;20071;-80
2023/07/30 04:58:45;;;;;;;0.20;0.20;;;;;;;15.38;100.00;96110.41;5023491;28;20083;-79
2023/07/30 05:01:31;;;;;;;0.20;0.20;;;;;;;15.40;100.00;96110.94;5020487;28;20052;-78
2023/07/30 05:04:17;;;;;;;0.15;0.15;;;;;;;15.55;100.00;96116.16;5036434;28;20041;-78
2023/07/30 05:07:03;;;;;;;0.10;0.10;;;;;;;15.77;100.00;96113.75;5037622;28;20094;-79
2023/07/30 05:09:51;;;;;;;0.10;0.10;;;;;;;15.94;100.00;96115.94;5036444;28;20830;-79
2023/07/30 05:12:37;;;;;;;0.10;0.10;;;;;;;16.13;100.00;96114.06;5035655;28;20119;-77
2023/07/30 05:15:23;;;;;;;0.10;0.10;;;;;;;16.29;100.00;96119.25;5038895;28;20721;-77
2023/07/30 05:18:08;;;;;;;0.20;0.20;;;;;;;16.32;100.00;96119.47;5037400;28;20051;-77
2023/07/30 05:20:55;;;;;;;0.10;0.10;;;;;;;16.51;100.00;96121.34;5039381;28;20098;-78
2023/07/30 05:23:40;;;;;;;0.10;0.10;;;;;;;16.52;100.00;96112.16;5034967;28;20135;-79
2023/07/30 05:26:26;;;;;;;0.20;0.20;;;;;;;16.52;100.00;96117.56;5037870;28;20045;-79
2023/07/30 05:29:12;;;;;;;0.10;0.10;;;;;;;16.53;100.00;96105.66;5035136;28;20037;-77
2023/07/30 05:31:58;;;;;;;0.10;0.10;;;;;;;16.55;100.00;96106.16;5034163;28;20350;-78
2023/07/30 05:34:44;;;;;;;0.17;0.17;;;;;;;16.55;100.00;96108.84;5037065;28;20046;-77
2023/07/30 05:37:32;;;;;;;0.10;0.10;;;;;;;16.49;100.00;96110.03;5014205;28;20322;-80
2023/07/30 05:40:17;;;;;;;0.10;0.10;;;;;;;16.49;100.00;96107.31;5018474;28;20574;-77
2023/07/30 05:43:05;;;;;;;0.20;0.20;;;;;;;16.47;100.00;96109.53;5019630;28;20040;-77
2023/07/30 05:45:51;;;;;;;0.10;0.10;;;;;;;16.65;100.00;96114.91;5036156;28;20044;-76
2023/07/30 05:48:37;;;;;;;0.10;0.10;;;;;;;16.66;100.00;96116.50;5035445;28;20502;-76
2023/07/30 05:51:23;;;;;;;0.10;0.10;;;;;;;16.64;100.00;96126.78;5038204;28;20044;-75
2023/07/30 05:54:09;;;;;;;0.10;0.10;;;;;;;16.65;100.00;96127.59;5037869;28;20171;-76
2023/07/30 05:56:55;;;;;;;0.17;0.17;;;;;;;16.72;100.00;96117.25;5036421;28;20282;-77
2023/07/30 05:59:41;;;;;;;0.10;0.10;;;;;;;16.86;100.00;96117.28;5036426;28;20567;-78
2023/07/30 06:02:26;;;;;;;0.10;0.10;;;;;;;16.90;100.00;96118.31;5033908;28;20585;-77
2023/07/30 06:05:12;;;;;;;0.10;0.10;;;;;;;16.71;100.00;96121.03;5035312;28;20060;-78
2023/07/30 06:07:59;;;;;;;0.10;0.10;;;;;;;16.61;100.00;96138.19;5036128;28;20045;-80
2023/07/30 06:10:47;;;;;;;0.15;0.15;;;;;;;16.48;100.00;96138.13;5039564;28;20083;-77
2023/07/30 06:13:33;;;;;;;0.10;0.10;;;;;;;16.37;100.00;96151.78;5034884;28;20051;-77
2023/07/30 06:16:20;;;;;;;0.10;0.10;;;;;;;16.40;100.00;96148.50;5033529;28;20414;-77
2023/07/30 06:19:06;;;;;;;0.10;0.10;;;;;;;16.75;100.00;96149.09;5034280;28;20045;-76
2023/07/30 06:21:51;;;;;;;0.10;0.10;;;;;;;17.09;100.00;96142.56;5034815;28;20601;-78
2023/07/30 06:24:37;;;;;;;0.10;0.10;;;;;;;16.98;100.00;96145.44;5019229;28;20418;-78
2023/07/30 06:27:23;;;;;;;0.00;0.00;;;;;;;16.93;100.00;96156.34;5035124;28;20228;-77
2023/07/30 06:30:09;;;;;;;0.10;0.10;;;;;;;17.01;100.00;96143.25;5038161;28;20052;-78
2023/07/30 06:32:55;;;;;;;0.20;0.20;;;;;;;16.94;100.00;96141.72;5021555;28;20318;-78
2023/07/30 06:35:41;;;;;;;0.20;0.20;;;;;;;17.11;100.00;96140.38;5034459;28;20085;-78
2023/07/30 06:38:27;;;;;;;0.15;0.15;;;;;;;17.25;100.00;96158.22;5017690;28;20099;-76
2023/07/30 06:41:13;;;;;;;0.15;0.15;;;;;;;17.22;100.00;96152.63;5036750;28;20461;-76
2023/07/30 06:43:59;;;;;;;0.17;0.17;;;;;;;17.14;100.00;96151.41;5032077;28;20059;-77
2023/07/30 06:46:45;;;;;;;0.10;0.10;;;;;;;16.84;100.00;96158.13;5020737;28;20045;-77
2023/07/30 06:49:33;;;;;;;0.10;0.10;;;;;;;16.75;100.00;96153.69;5035601;28;20179;-77
2023/07/30 06:52:20;;;;;;;0.10;0.10;;;;;;;16.81;100.00;96166.81;5030852;28;20045;-77
2023/07/30 06:55:06;;;;;;;0.20;0.20;;;;;;;16.84;100.00;96158.13;5035919;28;20403;-77
2023/07/30 06:57:52;;;;;;;0.13;0.13;;;;;;;16.98;100.00;96174.38;5019785;28;20049;-76
2023/07/30 07:00:39;;;;;;;0.10;0.10;;;;;;;17.05;100.00;96166.69;5031498;28;20080;-77
2023/07/30 07:03:27;;;;;;;0.20;0.20;;;;;;;17.11;100.00;96170.09;5034890;28;20048;-77
2023/07/30 07:06:13;;;;;;;0.10;0.10;;;;;;;16.99;100.00;96173.28;5035533;28;20068;-77
2023/07/30 07:08:59;;;;;;;0.10;0.10;;;;;;;16.96;100.00;96171.16;5033216;28;20044;-79
2023/07/30 07:11:45;;;;;;;0.10;0.10;;;;;;;16.80;100.00;96181.41;5035434;28;20044;-78
2023/07/30 07:14:31;;;;;;;0.10;0.10;;;;;;;16.77;100.00;96171.19;5037222;28;20048;-77
2023/07/30 07:17:17;;;;;;;0.20;0.20;;;;;;;16.78;100.00;96180.91;5034148;28;20037;-77
2023/07/30 07:20:07;;;;;;;0.10;0.10;;;;;;;16.78;100.00;96177.41;5034798;28;20568;-79
2023/07/30 07:22:52;;;;;;;0.20;0.20;;;;;;;16.94;100.00;96176.06;5032657;28;20510;-77
2023/07/30 07:25:38;;;;;;;0.10;0.10;;;;;;;17.03;100.00;96176.19;5034680;28;20037;-77
2023/07/30 07:28:24;;;;;;;0.10;0.10;;;;;;;17.10;100.00;96176.59;5031686;28;20036;-78
2023/07/30 07:31:10;;;;;;;0.10;0.10;;;;;;;17.26;100.00;96175.22;5033021;28;20077;-77
2023/07/30 07:33:56;;;;;;;0.10;0.10;;;;;;;17.32;100.00;96168.66;5030240;28;20040;-77
2023/07/30 07:36:41;;;;;;;0.20;0.20;;;;;;;17.21;100.00;96175.34;5034264;28;20398;-77
2023/07/30 07:39:27;;;;;;;0.20;0.20;;;;;;;17.26;100.00;96180.66;5035102;28;20052;-77
2023/07/30 07:42:13;;;;;;;0.20;0.20;;;;;;;17.31;100.00;96177.84;5032655;28;20049;-76
2023/07/30 07:44:59;;;;;;;0.20;0.20;;;;;;;17.30;100.00;96175.47;5034061;28;20063;-77
2023/07/30 07:47:45;;;;;;;0.10;0.10;;;;;;;17.09;100.00;96183.13;5033749;28;20040;-77
2023/07/30 07:50:31;;;;;;;0.10;0.10;;;;;;;16.84;100.00;96189.75;5031928;28;20459;-77
2023/07/30 07:53:16;;;;;;;0.10;0.10;;;;;;;16.69;100.00;96188.88;5034976;28;20044;-78
2023/07/30 07:56:03;;;;;;;0.10;0.10;;;;;;;16.47;100.00;96180.53;5032551;28;20045;-76
2023/07/30 07:58:49;;;;;;;0.17;0.17;;;;;;;16.42;100.00;96177.94;5033358;28;20081;-78
2023/07/30 08:01:35;;;;;;;0.10;0.10;;;;;;;16.47;100.00;96177.84;5019655;28;20087;-78
2023/07/30 08:04:21;;;;;;;0.10;0.10;;;;;;;16.30;100.00;96183.75;5034303;28;20528;-77
2023/07/30 08:07:07;;;;;;;0.10;0.10;;;;;;;15.81;100.00;96184.94;5030781;28;20040;-78
2023/07/30 08:09:54;;;;;;;0.10;0.10;;;;;;;15.82;100.00;96193.81;5031571;28;20037;-77
2023/07/30 08:12:40;;;;;;;0.10;0.10;;;;;;;15.77;100.00;96200.06;5034849;28;20033;-77
2023/07/30 08:15:26;;;;;;;0.10;0.10;;;;;;;15.71;100.00;96198.50;5032456;28;20037;-77
2023/07/30 08:18:12;;;;;;;0.20;0.20;;;;;;;15.60;100.00;96202.41;5035926;28;20407;-76
2023/07/30 08:20:59;;;;;;;0.10;0.10;;;;;;;15.51;100.00;96207.59;5038214;28;20041;-77
2023/07/30 08:23:46;;;;;;;0.20;0.20;;;;;;;15.40;100.00;96206.09;5034475;28;20051;-77
2023/07/30 08:26:32;;;;;;;0.10;0.10;;;;;;;15.44;100.00;96217.94;5032933;28;20040;-78
2023/07/30 08:29:18;;;;;;;0.08;0.08;;;;;;;15.36;100.00;96231.22;5031637;28;20449;-77
2023/07/30 08:32:04;;;;;;;0.10;0.10;;;;;;;15.11;100.00;96221.47;5036386;28;20194;-78
2023/07/30 08:34:50;;;;;;;0.10;0.10;;;;;;;15.12;100.00;96225.78;5035180;28;20066;-77
2023/07/30 08:37:36;;;;;;;0.10;0.10;;;;;;;14.91;100.00;96231.31;5016836;28;20048;-77
2023/07/30 08:40:25;;;;;;;0.10;0.10;;;;;;;14.62;100.00;96231.25;5032754;28;20106;-77
2023/07/30 08:43:11;;;;;;;0.10;0.10;;;;;;;14.88;100.00;96226.50;5033385;28;20041;-76
2023/07/30 08:45:57;;;;;;;0.13;0.13;;;;;;;15.02;100.00;96227.47;5015411;28;20059;-76
2023/07/30 08:48:43;;;;;;;0.10;0.10;;;;;;;15.03;100.00;96229.09;5037565;28;20071;-77
2023/07/30 08:51:29;;;;;;;0.20;0.20;;;;;;;15.42;100.00;96219.31;5037996;28;20045;-76
2023/07/30 08:54:16;;;;;;;0.10;0.10;;;;;;;15.48;100.00;96224.34;5038002;28;20092;-77
2023/07/30 08:57:02;;;;;;;0.10;0.10;;;;;;;15.58;100.00;96223.47;5035560;28;20496;-78
2023/07/30 08:59:58;;;;;;;0.17;0.17;;;;;;;15.63;100.00;96225.31;5036760;28;20037;-77
2023/07/30 09:02:48;;;;;;;0.10;0.10;;;;;;;15.83;100.00;96225.91;5034345;28;20041;-76
2023/07/30 09:05:34;;;;;;;0.10;0.10;;;;;;;16.08;100.00;96226.69;5036876;28;20148;-77
2023/07/30 09:08:20;;;;;;;0.10;0.10;;;;;;;16.30;100.00;96234.25;5032813;28;20041;-77
2023/07/30 09:11:10;;;;;;;0.10;0.10;;;;;;;16.21;100.00;96233.28;5036811;28;20044;-77
2023/07/30 09:13:57;;;;;;;0.10;0.10;;;;;;;16.33;100.00;96239.06;5038551;28;20496;-77
2023/07/30 09:16:43;;;;;;;0.10;0.10;;;;;;;16.09;100.00;96222.91;5036448;28;20041;-77
2023/07/30 09:19:35;;;;;;;0.10;0.10;;;;;;;16.51;100.00;96241.00;5023819;28;20079;-77
2023/07/30 09:22:28;;;;;;;0.20;0.20;;;;;;;16.77;100.00;96230.63;5036042;28;20041;-77
2023/07/30 09:25:16;;;;;;;0.20;0.20;;;;;;;17.18;100.00;96243.50;5036598;28;20045;-76
2023/07/30 09:28:02;;;;;;;0.10;0.10;;;;;;;17.40;100.00;96249.09;5035467;28;20069;-78
2023/07/30 09:30:49;;;;;;;0.10;0.10;;;;;;;17.24;100.00;96253.16;5037466;28;20041;-77
2023/07/30 09:33:40;;;;;;;0.10;0.10;;;;;;;16.88;100.00;96250.19;5035009;28;20048;-77
2023/07/30 09:36:26;;;;;;;;;;;;;;;16.69;100.00;96252.91;5039705;28;20037;-77
2023/07/30 09:39:30;;;;;;;0.10;0.10;;;;;;;16.90;100.00;96251.53;5035021;28;20366;-77
2023/07/30 09:42:16;;;;;;;0.10;0.10;;;;;;;17.14;100.00;96272.25;5035136;28;20036;-77
2023/07/30 09:45:02;;;;;;;0.20;0.20;;;;;;;17.50;100.00;96272.44;5023112;28;20155;-78
2023/07/30 09:47:50;;;;;;;0.10;0.10;;;;;;;17.69;100.00;96264.28;5022070;28;20055;-77
2023/07/30 09:50:37;;;;;;;0.10;0.10;;;;;;;17.78;100.00;96251.69;5038972;28;20676;-78
2023/07/30 09:53:24;;;;;;;0.10;0.10;;;;;;;17.81;100.00;96253.78;5036079;28;20040;-76
2023/07/30 09:56:10;;;;;;;0.10;0.10;;;;;;;17.54;100.00;96257.25;5023169;28;20395;-76
2023/07/30 09:58:56;;;;;;;0.10;0.10;;;;;;;17.43;100.00;96262.03;5033925;28;20059;-76
2023/07/30 10:01:49;;;;;;;0.13;0.13;;;;;;;17.92;100.00;96257.94;5036226;28;20399;-77
2023/07/30 10:04:41;;;;;;;0.20;0.20;;;;;;;18.77;100.00;96263.81;5033716;28;20140;-76
2023/07/30 10:07:28;;;;;;;0.10;0.10;;;;;;;19.61;100.00;96263.16;5030161;28;21011;-77
2023/07/30 10:10:14;;;;;;;0.10;0.10;;;;;;;20.34;100.00;96279.94;5033395;28;20049;-78
2023/07/30 10:13:04;;;;;;;0.20;0.20;;;;;;;20.32;100.00;96272.13;5034495;28;20033;-77
2023/07/30 10:15:51;;;;;;;0.20;0.20;;;;;;;19.85;100.00;96274.47;5036326;28;20048;-78
2023/07/30 10:18:41;;;;;;;0.20;0.20;;;;;;;20.01;100.00;96281.09;5032307;28;20037;-76
2023/07/30 10:21:29;;;;;;;0.10;0.10;;;;;;;20.38;100.00;96275.47;5035843;28;20040;-78
2023/07/30 10:24:15;;;;;;;0.10;0.10;;;;;;;20.10;100.00;96285.78;5020472;28;20063;-78
2023/07/30 10:27:05;;;;;;;0.10;0.10;;;;;;;19.69;100.00;96284.94;5034677;28;20072;-76
2023/07/30 10:30:14;;;;;;;0.10;0.10;;;;;;;18.32;100.00;96299.66;5035451;28;20043;-78
2023/07/30 10:33:02;;;;;;;0.10;0.10;;;;;;;17.54;100.00;96295.91;5020261;28;20045;-76
2023/07/30 10:35:48;;;;;;;0.10;0.10;;;;;;;17.23;100.00;96287.50;5036009;28;20048;-78
2023/07/30 10:38:34;;;;;;;0.10;0.10;;;;;;;17.06;100.00;96283.72;5036381;28;20534;-77
2023/07/30 10:41:21;;;;;;;0.10;0.10;;;;;;;16.94;100.00;96284.97;5034872;28;20039;-76
2023/07/30 10:44:07;;;;;;;0.10;0.10;;;;;;;16.79;100.00;96285.19;5032942;28;20099;-78
2023/07/30 10:46:55;;;;;;;0.10;0.10;;;;;;;16.42;100.00;96285.94;5033982;28;20069;-77
2023/07/30 10:49:43;;;;;;;0.10;0.10;;;;;;;16.38;100.00;96298.41;5033498;28;20041;-76
2023/07/30 10:52:29;;;;;;;0.10;0.10;;;;;;;16.34;100.00;96298.19;5033936;28;20044;-76
2023/07/30 10:55:15;;;;;;;0.10;0.10;;;;;;;16.36;100.00;96301.41;5036350;28;20459;-77
2023/07/30 10:58:01;;;;;;;0.20;0.20;;;;;;;16.35;100.00;96299.00;5035278;28;20392;-77
2023/07/30 11:00:49;;;;;;;0.20;0.20;;;;;;;16.22;100.00;96308.56;5035565;28;20033;-77
2023/07/30 11:03:36;;;;;;;0.15;0.15;;;;;;;16.33;100.00;96304.66;5033146;28;20052;-78
2023/07/30 11:06:26;;;;;;;0.10;0.10;;;;;;;16.22;100.00;96305.88;5031511;28;20051;-77
2023/07/30 11:09:23;;;;;;;0.20;0.20;;;;;;;16.35;100.00;96307.88;5033881;28;20040;-77
2023/07/30 11:12:10;;;;;;;0.10;0.10;;;;;;;16.60;100.00;96312.16;5034627;28;20510;-77
2023/07/30 11:15:03;;;;;;;0.15;0.15;;;;;;;16.81;100.00;96307.34;5036022;28;20982;-76
2023/07/30 11:17:51;;;;;;;0.10;0.10;;;;;;;16.84;100.00;96330.25;5034160;28;20049;-77
2023/07/30 11:20:37;;;;;;;0.17;0.17;;;;;;;17.34;100.00;96322.47;5033515;28;20045;-77
2023/07/30 11:23:23;;;;;;;0.10;0.10;;;;;;;17.79;100.00;96312.84;5032648;28;20562;-76
2023/07/30 11:26:17;;;;;;;0.10;0.10;;;;;;;17.73;100.00;96316.72;5035910;28;20053;-77
2023/07/30 11:29:17;;;;;;;0.20;0.20;;;;;;;18.03;100.00;96310.75;5034431;28;20065;-77
2023/07/30 11:32:03;;;;;;;0.20;0.20;;;;;;;18.37;100.00;96312.31;5031455;28;20079;-76
2023/07/30 11:34:50;;;;;;;0.13;0.13;;;;;;;19.03;100.00;96300.06;5031494;28;20045;-77
2023/07/30 11:37:39;;;;;;;0.20;0.20;;;;;;;24.87;99.81;96285.03;5031822;28;20499;-77
2023/07/30 11:40:26;;;;;;;0.20;0.20;;;;;;;28.18;75.06;96290.38;5019483;28;20045;-76
2023/07/30 11:43:12;;;;;;;0.20;0.20;;;;;;;29.90;64.85;96288.94;5037208;28;20083;-77
2023/07/30 11:46:15;;;;;;;0.10;0.10;;;;;;;24.78;87.64;96301.59;5034187;28;20754;-76
2023/07/30 11:49:30;;;;;;;0.20;0.20;;;;;;;25.02;87.90;96301.53;5032659;28;20138;-77
2023/07/30 11:52:16;;;;;;;0.10;0.10;;;;;;;22.97;94.97;96321.41;5028030;28;20033;-76
2023/07/30 11:55:05;;;;;;;0.10;0.10;;;;;;;21.61;100.00;96322.34;5037137;28;20923;-76
2023/07/30 11:57:51;;;;;;;0.10;0.10;;;;;;;20.84;100.00;96316.53;5033648;28;20037;-76
2023/07/30 12:00:39;;;;;;;0.10;0.10;;;;;;;20.37;100.00;96320.06;5033422;28;20053;-77
2023/07/30 12:03:25;;;;;;;0.08;0.08;;;;;;;19.79;100.00;96330.03;5032980;28;20083;-77
2023/07/30 12:06:11;;;;;;;0.10;0.10;;;;;;;19.51;100.00;96323.88;5035106;28;20560;-76
2023/07/30 12:08:58;;;;;;;0.10;0.10;;;;;;;19.76;100.00;96327.91;5030745;28;20581;-77
2023/07/30 12:11:44;;;;;;;0.20;0.20;;;;;;;20.83;100.00;96323.09;5033176;28;20040;-77
2023/07/30 12:14:42;;;;;;;0.10;0.10;;;;;;;26.70;75.83;96314.38;5033677;28;20053;-76
2023/07/30 12:17:28;;;;;;;0.10;0.10;;;;;;;30.16;48.73;96306.56;5033827;28;20117;-77
2023/07/30 12:20:14;;;;;;;0.10;0.10;;;;;;;27.44;68.23;96331.72;5035045;28;20045;-78
2023/07/30 12:23:02;;;;;;;0.20;0.20;;;;;;;29.48;55.58;96314.00;5036053;28;20041;-78
2023/07/30 12:25:51;;;;;;;0.17;0.17;;;;;;;26.31;69.80;96327.09;5037983;28;20151;-78
2023/07/30 12:28:36;;;;;;;0.20;0.20;;;;;;;24.64;82.59;96323.81;5022490;28;20239;-78
2023/07/30 12:31:22;;;;;;;0.10;0.10;;;;;;;25.60;77.72;96320.44;5019537;28;20087;-77
2023/07/30 12:34:08;;;;;;;0.20;0.20;;;;;;;26.65;72.64;96333.84;5037601;28;20136;-78
2023/07/30 12:36:56;;;;;;;0.10;0.10;;;;;;;26.67;64.56;96321.34;5036352;28;20033;-78
2023/07/30 12:39:41;;;;;;;0.20;0.20;;;;;;;28.21;59.27;96316.34;5039399;28;20131;-77
2023/07/30 12:42:27;;;;;;;0.17;0.17;;;;;;;28.00;65.04;96325.00;5035106;28;20080;-77
2023/07/30 12:45:13;;;;;;;0.10;0.10;;;;;;;24.89;82.28;96330.06;5038204;28;20040;-76
2023/07/30 12:48:00;;;;;;;0.20;0.20;;;;;;;28.44;54.74;96324.66;5022668;28;20041;-77
2023/07/30 12:50:46;;;;;;;0.10;0.10;;;;;;;30.94;50.33;96323.03;5036222;28;20487;-77
2023/07/30 12:53:34;;;;;;;0.10;0.10;;;;;;;31.03;48.23;96315.19;5035850;28;20557;-78
2023/07/30 12:56:20;;;;;;;0.17;0.17;;;;;;;30.37;49.91;96320.59;5033519;28;20040;-78
2023/07/30 12:59:06;;;;;;;0.30;0.30;;;;;;;29.27;48.81;96324.78;5036821;28;20186;-79